createdAt,value
2018-07-02T00:00:37.542Z,19.40
2018-07-02T00:03:05.259Z,19.40
2018-07-02T00:05:44.060Z,19.40
2018-07-02T00:08:11.760Z,19.40
2018-07-02T00:10:39.543Z,19.40
2018-07-02T00:13:07.224Z,19.30
2018-07-02T00:15:34.933Z,19.30
2018-07-02T00:18:02.634Z,19.30
2018-07-02T00:20:30.348Z,19.40
2018-07-02T00:22:58.077Z,19.30
2018-07-02T00:25:25.756Z,19.40
2018-07-02T00:27:53.458Z,19.40
2018-07-02T00:30:21.120Z,19.40
2018-07-02T00:32:48.836Z,19.40
2018-07-02T00:35:16.531Z,19.30
2018-07-02T00:37:44.227Z,19.30
2018-07-02T00:40:11.960Z,19.20
2018-07-02T00:42:39.716Z,19.20
2018-07-02T00:45:07.433Z,19.20
2018-07-02T00:47:35.201Z,19.10
2018-07-02T00:50:02.979Z,19.00
2018-07-02T00:52:30.688Z,18.90
2018-07-02T00:54:58.392Z,18.90
2018-07-02T00:57:26.043Z,18.80
2018-07-02T00:59:54.340Z,18.80
2018-07-02T01:02:22.007Z,18.70
2018-07-02T01:04:49.680Z,18.60
2018-07-02T01:07:17.337Z,18.60
2018-07-02T01:09:45.035Z,18.60
2018-07-02T01:12:12.749Z,18.60
2018-07-02T01:14:40.468Z,18.60
2018-07-02T01:17:08.124Z,18.60
2018-07-02T01:19:35.827Z,18.50
2018-07-02T01:22:03.604Z,18.40
2018-07-02T01:24:31.312Z,18.30
2018-07-02T01:26:58.985Z,18.30
2018-07-02T01:29:26.660Z,18.20
2018-07-02T01:31:54.399Z,18.20
2018-07-02T01:34:22.071Z,18.10
2018-07-02T01:36:49.760Z,18.10
2018-07-02T01:39:17.435Z,17.90
2018-07-02T01:41:45.132Z,17.90
2018-07-02T01:44:12.807Z,17.80
2018-07-02T01:46:40.518Z,17.80
2018-07-02T01:49:08.187Z,17.80
2018-07-02T01:51:35.907Z,17.70
2018-07-02T01:54:03.592Z,17.70
2018-07-02T01:56:31.285Z,17.70
2018-07-02T01:58:58.956Z,17.60
2018-07-02T02:01:26.707Z,17.50
2018-07-02T02:03:54.367Z,17.40
2018-07-02T02:06:22.035Z,17.40
2018-07-02T02:08:49.723Z,17.20
2018-07-02T02:11:17.418Z,17.20
2018-07-02T02:13:45.126Z,17.10
2018-07-02T02:16:12.830Z,17.10
2018-07-02T02:18:40.516Z,17.20
2018-07-02T02:21:08.266Z,17.20
2018-07-02T02:23:35.945Z,17.20
2018-07-02T02:26:03.832Z,17.20
2018-07-02T02:28:31.559Z,17.20
2018-07-02T02:30:59.205Z,17.20
2018-07-02T02:33:26.836Z,17.10
2018-07-02T02:35:54.568Z,17.10
2018-07-02T02:38:22.240Z,17.10
2018-07-02T02:40:49.953Z,17.10
2018-07-02T02:43:17.616Z,17.10
2018-07-02T02:45:45.326Z,17.00
2018-07-02T02:48:13.041Z,16.90
2018-07-02T02:50:40.721Z,16.80
2018-07-02T02:53:08.389Z,16.80
2018-07-02T02:55:36.165Z,16.70
2018-07-02T02:58:04.889Z,16.70
2018-07-02T03:00:32.755Z,16.70
2018-07-02T03:03:00.428Z,16.70
2018-07-02T03:05:28.124Z,16.70
2018-07-02T03:07:55.819Z,16.70
2018-07-02T03:10:23.541Z,16.80
2018-07-02T03:12:51.264Z,16.80
2018-07-02T03:15:18.932Z,16.80
2018-07-02T03:17:46.603Z,16.80
2018-07-02T03:20:14.433Z,16.80
2018-07-02T03:22:42.028Z,16.80
2018-07-02T03:25:09.744Z,16.80
2018-07-02T03:27:37.462Z,16.80
2018-07-02T03:30:05.297Z,16.70
2018-07-02T03:32:32.982Z,16.70
2018-07-02T03:35:00.687Z,16.70
2018-07-02T03:37:28.419Z,16.60
2018-07-02T03:39:56.104Z,16.60
2018-07-02T03:42:23.840Z,16.50
2018-07-02T03:44:51.548Z,16.50
2018-07-02T03:47:19.208Z,16.40
2018-07-02T03:49:46.935Z,16.50
2018-07-02T03:52:14.658Z,16.50
2018-07-02T03:54:42.343Z,16.50
2018-07-02T03:57:10.016Z,16.50
2018-07-02T03:59:37.656Z,16.50
2018-07-02T04:02:05.507Z,16.50
2018-07-02T04:04:33.182Z,16.50
2018-07-02T04:07:00.873Z,16.50
2018-07-02T04:09:28.563Z,16.50
2018-07-02T04:11:56.245Z,16.50
2018-07-02T04:14:23.892Z,16.50
2018-07-02T04:16:51.612Z,16.50
2018-07-02T04:19:19.265Z,16.50
2018-07-02T04:21:46.920Z,16.50
2018-07-02T04:24:14.597Z,16.50
2018-07-02T04:26:42.229Z,16.50
2018-07-02T04:29:10.316Z,16.40
2018-07-02T04:31:37.951Z,16.50
2018-07-02T04:34:05.735Z,16.60
2018-07-02T04:36:34.116Z,16.70
2018-07-02T04:39:01.904Z,16.60
2018-07-02T04:41:29.580Z,16.70
2018-07-02T04:43:57.315Z,16.60
2018-07-02T04:46:24.999Z,16.70
2018-07-02T04:48:52.699Z,16.70
2018-07-02T04:51:20.413Z,16.70
2018-07-02T04:53:48.035Z,16.70
2018-07-02T04:56:15.748Z,16.70
2018-07-02T04:58:43.396Z,16.60
2018-07-02T05:01:11.120Z,16.70
2018-07-02T05:03:38.783Z,16.70
2018-07-02T05:06:07.185Z,16.70
2018-07-02T05:08:34.874Z,16.80
2018-07-02T05:11:02.661Z,16.70
2018-07-02T05:13:30.340Z,16.70
2018-07-02T05:15:58.037Z,16.70
2018-07-02T05:18:25.700Z,16.80
2018-07-02T05:20:53.368Z,16.80
2018-07-02T05:23:21.027Z,16.90
2018-07-02T05:25:48.729Z,16.90
2018-07-02T05:28:16.424Z,17.00
2018-07-02T05:30:44.129Z,17.00
2018-07-02T05:33:11.782Z,17.10
2018-07-02T05:35:39.460Z,17.20
2018-07-02T05:38:07.123Z,17.20
2018-07-02T05:40:34.884Z,17.20
2018-07-02T05:43:03.027Z,17.30
2018-07-02T05:45:30.683Z,17.30
2018-07-02T05:47:58.603Z,17.30
2018-07-02T05:50:26.273Z,17.30
2018-07-02T05:52:53.969Z,17.40
2018-07-02T05:55:21.657Z,17.50
2018-07-02T05:57:49.344Z,17.50
2018-07-02T06:00:17.101Z,17.50
2018-07-02T06:02:44.706Z,17.40
2018-07-02T06:05:12.380Z,17.50
2018-07-02T06:07:40.073Z,17.50
2018-07-02T06:10:07.795Z,17.60
2018-07-02T06:12:35.465Z,17.70
2018-07-02T06:15:03.212Z,17.80
2018-07-02T06:17:30.896Z,17.80
2018-07-02T06:19:58.576Z,17.90
2018-07-02T06:22:26.203Z,18.00
2018-07-02T06:24:53.987Z,18.10
2018-07-02T06:27:21.586Z,18.20
2018-07-02T06:29:49.280Z,18.20
2018-07-02T06:32:16.961Z,18.30
2018-07-02T06:34:44.681Z,18.30
2018-07-02T06:37:12.359Z,18.40
2018-07-02T06:39:40.029Z,18.50
2018-07-02T06:42:07.793Z,18.60
2018-07-02T06:44:35.460Z,18.60
2018-07-02T06:47:03.289Z,18.70
2018-07-02T06:49:30.958Z,18.70
2018-07-02T06:51:58.665Z,18.80
2018-07-02T06:54:26.355Z,18.80
2018-07-02T06:56:54.065Z,19.00
2018-07-02T06:59:21.760Z,19.10
2018-07-02T07:01:49.932Z,19.20
2018-07-02T07:04:17.568Z,19.30
2018-07-02T07:06:45.244Z,19.40
2018-07-02T07:09:12.901Z,19.40
2018-07-02T07:11:40.661Z,19.60
2018-07-02T07:14:08.463Z,19.70
2018-07-02T07:16:36.204Z,19.80
2018-07-02T07:19:03.870Z,19.80
2018-07-02T07:21:31.573Z,19.80
2018-07-02T07:23:59.415Z,19.90
2018-07-02T07:26:27.053Z,19.90
2018-07-02T07:28:54.773Z,19.90
2018-07-02T07:31:22.779Z,20.10
2018-07-02T07:33:50.485Z,20.20
2018-07-02T07:36:18.776Z,20.20
2018-07-02T07:38:46.448Z,20.30
2018-07-02T07:41:14.160Z,20.30
2018-07-02T07:43:41.851Z,20.40
2018-07-02T07:46:09.536Z,20.50
2018-07-02T07:48:37.243Z,20.60
2018-07-02T07:51:05.035Z,20.60
2018-07-02T07:53:32.729Z,20.70
2018-07-02T07:56:00.455Z,20.80
2018-07-02T07:58:28.156Z,20.90
2018-07-02T08:00:55.990Z,21.00
2018-07-02T08:03:23.712Z,21.00
2018-07-02T08:05:51.379Z,21.00
2018-07-02T08:08:19.064Z,21.10
2018-07-02T08:10:46.770Z,21.30
2018-07-02T08:13:14.440Z,21.30
2018-07-02T08:15:42.117Z,21.20
2018-07-02T08:18:09.803Z,21.40
2018-07-02T08:20:37.506Z,21.50
2018-07-02T08:23:05.456Z,21.60
2018-07-02T08:25:33.159Z,21.70
2018-07-02T08:28:00.900Z,21.70
2018-07-02T08:30:28.583Z,21.80
2018-07-02T08:32:56.267Z,22.00
2018-07-02T08:35:23.931Z,22.10
2018-07-02T08:37:51.743Z,22.20
2018-07-02T08:40:19.470Z,22.20
2018-07-02T08:42:47.215Z,22.30
2018-07-02T08:45:14.876Z,22.30
2018-07-02T08:47:42.576Z,22.40
2018-07-02T08:50:10.272Z,22.50
2018-07-02T08:52:37.968Z,22.60
2018-07-02T08:55:05.844Z,22.70
2018-07-02T08:57:33.516Z,22.60
2018-07-02T09:00:01.248Z,22.70
2018-07-02T09:02:28.957Z,22.80
2018-07-02T09:04:56.648Z,22.90
2018-07-02T09:07:24.342Z,23.00
2018-07-02T09:09:52.032Z,23.10
2018-07-02T09:12:19.803Z,23.20
2018-07-02T09:14:47.582Z,23.30
2018-07-02T09:17:15.180Z,23.40
2018-07-02T09:19:42.895Z,23.40
2018-07-02T09:22:10.580Z,23.60
2018-07-02T09:24:38.292Z,23.70
2018-07-02T09:27:05.949Z,23.70
2018-07-02T09:29:33.845Z,23.90
2018-07-02T09:32:01.552Z,24.00
2018-07-02T09:34:29.284Z,24.10
2018-07-02T09:36:56.988Z,24.20
2018-07-02T09:39:24.725Z,24.30
2018-07-02T09:41:52.395Z,24.40
2018-07-02T09:44:20.096Z,24.60
2018-07-02T09:46:47.812Z,24.70
2018-07-02T09:49:15.625Z,24.90
2018-07-02T09:51:43.329Z,25.10
2018-07-02T09:54:12.495Z,25.40
2018-07-02T09:56:40.248Z,25.60
2018-07-02T09:59:07.981Z,25.70
2018-07-02T10:01:35.776Z,25.80
2018-07-02T10:04:03.536Z,26.00
2018-07-02T10:06:31.533Z,26.20
2018-07-02T10:08:59.336Z,26.20
2018-07-02T10:11:27.125Z,26.20
2018-07-02T10:13:54.893Z,26.20
2018-07-02T10:16:22.607Z,26.20
2018-07-02T10:18:50.625Z,26.20
2018-07-02T10:21:18.376Z,26.20
2018-07-02T10:23:46.143Z,26.20
2018-07-02T10:26:13.873Z,26.20
2018-07-02T10:28:42.002Z,26.10
2018-07-02T10:31:09.796Z,26.10
2018-07-02T10:33:37.709Z,26.10
2018-07-02T10:36:05.397Z,26.10
2018-07-02T10:38:33.140Z,26.20
2018-07-02T10:41:00.847Z,26.20
2018-07-02T10:43:30.923Z,26.20
2018-07-02T10:45:58.857Z,26.20
2018-07-02T10:48:26.579Z,26.40
2018-07-02T10:50:54.648Z,26.50
2018-07-02T10:53:22.333Z,26.50
2018-07-02T10:55:50.078Z,26.60
2018-07-02T10:58:17.760Z,26.50
2018-07-02T11:00:49.443Z,26.50
2018-07-02T11:03:17.138Z,26.50
2018-07-02T11:05:44.883Z,26.60
2018-07-02T11:08:12.577Z,26.60
2018-07-02T11:10:40.351Z,26.70
2018-07-02T11:13:10.564Z,26.80
2018-07-02T11:15:38.901Z,27.00
2018-07-02T11:18:07.855Z,27.20
2018-07-02T11:20:36.197Z,27.40
2018-07-02T11:23:03.911Z,27.50
2018-07-02T11:25:32.558Z,27.60
2018-07-02T11:28:00.313Z,27.70
2018-07-02T11:30:28.037Z,27.80
2018-07-02T11:32:55.792Z,27.80
2018-07-02T11:35:23.461Z,27.90
2018-07-02T11:37:51.614Z,28.00
2018-07-02T11:40:19.317Z,28.10
2018-07-02T11:42:47.052Z,28.20
2018-07-02T11:45:14.832Z,28.30
2018-07-02T11:47:42.560Z,28.20
2018-07-02T11:50:10.767Z,28.30
2018-07-02T11:52:38.832Z,28.30
2018-07-02T11:55:08.720Z,28.60
2018-07-02T11:57:36.962Z,28.90
2018-07-02T12:00:05.636Z,29.00
2018-07-02T12:02:33.453Z,29.00
2018-07-02T12:05:01.225Z,29.20
2018-07-02T12:07:29.220Z,29.40
2018-07-02T12:09:56.948Z,29.60
2018-07-02T12:12:24.717Z,29.70
2018-07-02T12:14:52.465Z,29.80
2018-07-02T12:17:21.403Z,29.70
2018-07-02T12:19:49.188Z,29.80
2018-07-02T12:22:17.620Z,29.90
2018-07-02T12:24:45.374Z,30.10
2018-07-02T12:27:13.065Z,30.20
2018-07-02T12:29:40.772Z,30.30
2018-07-02T12:32:10.064Z,30.30
2018-07-02T12:34:37.851Z,30.30
2018-07-02T12:37:05.768Z,30.20
2018-07-02T12:39:35.130Z,30.30
2018-07-02T12:42:03.307Z,30.50
2018-07-02T12:44:31.487Z,30.60
2018-07-02T12:46:59.590Z,30.80
2018-07-02T12:49:29.412Z,30.90
2018-07-02T12:51:57.636Z,31.00
2018-07-02T12:54:26.767Z,31.10
2018-07-02T12:56:57.155Z,31.10
2018-07-02T12:59:25.161Z,31.20
2018-07-02T13:01:53.220Z,31.20
2018-07-02T13:04:22.075Z,31.20
2018-07-02T13:06:49.778Z,30.80
2018-07-02T13:09:18.500Z,30.70
2018-07-02T13:11:46.301Z,30.70
2018-07-02T13:14:14.691Z,30.60
2018-07-02T13:16:42.569Z,30.80
2018-07-02T13:19:11.078Z,30.70
2018-07-02T13:21:39.743Z,30.70
2018-07-02T13:24:07.938Z,30.80
2018-07-02T13:26:36.055Z,30.90
2018-07-02T13:29:04.175Z,31.10
2018-07-02T13:31:31.935Z,31.20
2018-07-02T13:33:59.951Z,31.20
2018-07-02T13:36:27.728Z,31.40
2018-07-02T13:38:55.452Z,31.60
2018-07-02T13:41:24.245Z,31.70
2018-07-02T13:43:52.119Z,31.40
2018-07-02T13:46:19.984Z,31.50
2018-07-02T13:48:49.538Z,31.70
2018-07-02T13:51:18.461Z,31.60
2018-07-02T13:53:46.681Z,31.50
2018-07-02T13:56:20.935Z,31.20
2018-07-02T13:58:49.442Z,31.20
2018-07-02T14:01:18.627Z,31.20
2018-07-02T14:03:47.728Z,31.20
2018-07-02T14:06:19.057Z,31.30
2018-07-02T14:08:52.769Z,31.30
2018-07-02T14:11:21.601Z,31.50
2018-07-02T14:30:11.479Z,31.40
2018-07-02T14:32:39.600Z,32.50
2018-07-02T14:35:07.457Z,32.30
2018-07-02T14:37:35.173Z,32.20
2018-07-02T14:40:03.237Z,32.10
2018-07-02T14:42:30.930Z,32.20
2018-07-02T14:44:58.663Z,32.20
2018-07-02T14:47:26.325Z,32.10
2018-07-02T14:49:54.045Z,32.00
2018-07-02T14:52:22.762Z,31.90
2018-07-02T14:54:50.428Z,31.90
2018-07-02T14:57:18.144Z,31.90
2018-07-02T14:59:45.829Z,31.60
2018-07-02T15:02:13.587Z,31.50
2018-07-02T15:04:41.308Z,31.30
2018-07-02T15:07:09.047Z,31.30
2018-07-02T15:09:36.755Z,31.40
2018-07-02T15:12:04.575Z,31.50
2018-07-02T15:14:32.272Z,31.40
2018-07-02T15:17:00.028Z,31.40
2018-07-02T15:19:27.738Z,31.50
2018-07-02T15:21:55.551Z,31.50
2018-07-02T15:24:23.570Z,31.50
2018-07-02T15:26:51.368Z,31.50
2018-07-02T15:29:19.040Z,31.70
2018-07-02T15:31:46.760Z,31.80
2018-07-02T15:34:14.448Z,31.80
2018-07-02T15:36:42.217Z,31.70
2018-07-02T15:39:10.386Z,31.70
2018-07-02T15:41:38.358Z,31.70
2018-07-02T15:44:06.202Z,31.70
2018-07-02T15:46:34.008Z,31.50
2018-07-02T15:49:01.731Z,31.50
2018-07-02T15:51:29.451Z,31.60
2018-07-02T15:53:57.230Z,31.60
2018-07-02T15:56:25.692Z,31.40
2018-07-02T15:58:53.480Z,31.40
2018-07-02T16:01:21.271Z,31.30
2018-07-02T16:03:49.052Z,31.30
2018-07-02T16:06:16.851Z,31.30
2018-07-02T16:08:45.094Z,31.20
2018-07-02T16:11:13.238Z,31.00
2018-07-02T16:13:41.410Z,31.00
2018-07-02T16:16:09.811Z,30.90
2018-07-02T16:18:38.049Z,30.90
2018-07-02T16:21:06.379Z,30.80
2018-07-02T16:23:35.408Z,30.70
2018-07-02T16:26:04.790Z,30.70
2018-07-02T16:28:32.873Z,30.40
2018-07-02T16:31:04.988Z,30.30
2018-07-02T16:33:35.217Z,30.20
2018-07-02T16:36:03.038Z,30.20
2018-07-02T16:38:31.574Z,30.00
2018-07-02T16:41:01.348Z,29.90
2018-07-02T16:43:29.161Z,29.80
2018-07-02T16:45:56.928Z,29.70
2018-07-02T16:48:24.641Z,29.60
2018-07-02T16:50:52.380Z,29.50
2018-07-02T16:53:20.238Z,29.50
2018-07-02T16:55:47.864Z,29.50
2018-07-02T16:58:15.601Z,29.40
2018-07-02T17:00:43.450Z,29.20
2018-07-02T17:03:11.306Z,29.10
2018-07-02T17:05:42.178Z,29.20
2018-07-02T17:08:10.490Z,29.20
2018-07-02T17:10:39.708Z,29.10
2018-07-02T17:13:07.793Z,29.10
2018-07-02T17:15:35.589Z,29.00
2018-07-02T17:18:03.445Z,29.00
2018-07-02T17:20:33.738Z,29.00
2018-07-02T17:23:06.556Z,28.90
2018-07-02T17:25:34.340Z,28.90
2018-07-02T17:28:02.060Z,28.90
2018-07-02T17:30:29.810Z,28.90
2018-07-02T17:33:06.600Z,28.90
2018-07-02T17:35:39.513Z,28.90
2018-07-02T17:38:18.242Z,28.90
2018-07-02T17:40:46.197Z,28.70
2018-07-02T17:43:13.875Z,28.80
2018-07-02T17:45:41.922Z,28.90
2018-07-02T17:48:15.721Z,28.70
2018-07-02T17:50:43.459Z,28.80
2018-07-02T17:53:11.171Z,28.70
2018-07-02T17:55:38.929Z,28.60
2018-07-02T17:58:06.688Z,28.60
2018-07-02T18:00:34.428Z,28.60
2018-07-02T18:03:02.335Z,28.50
2018-07-02T18:05:30.092Z,28.50
2018-07-02T18:07:57.839Z,28.40
2018-07-02T18:10:25.584Z,28.30
2018-07-02T18:12:55.249Z,28.20
2018-07-02T18:15:22.920Z,28.10
2018-07-02T18:17:53.109Z,28.10
2018-07-02T18:20:20.813Z,28.00
2018-07-02T18:22:48.615Z,28.00
2018-07-02T18:25:16.299Z,27.80
2018-07-02T18:27:44.025Z,27.70
2018-07-02T18:30:11.704Z,27.60
2018-07-02T18:32:39.507Z,27.60
2018-07-02T18:35:07.345Z,27.60
2018-07-02T18:37:35.229Z,27.50
2018-07-02T18:40:03.145Z,27.40
2018-07-02T18:42:30.845Z,27.30
2018-07-02T18:44:58.620Z,27.30
2018-07-02T18:47:26.437Z,27.20
2018-07-02T18:49:54.188Z,27.10
2018-07-02T18:52:21.896Z,27.10
2018-07-02T18:54:49.589Z,27.10
2018-07-02T18:57:17.304Z,27.00
2018-07-02T18:59:46.179Z,27.00
2018-07-02T19:02:17.485Z,26.90
2018-07-02T19:04:45.221Z,26.80
2018-07-02T19:07:12.955Z,26.80
2018-07-02T19:09:40.656Z,26.70
2018-07-02T19:12:08.409Z,26.60
2018-07-02T19:14:36.152Z,26.60
2018-07-02T19:17:04.180Z,26.50
2018-07-02T19:19:31.884Z,26.50
2018-07-02T19:21:59.666Z,26.40
2018-07-02T19:24:27.416Z,26.40
2018-07-02T19:26:55.173Z,26.40
2018-07-02T19:29:22.947Z,26.30
2018-07-02T19:31:50.593Z,26.30
2018-07-02T19:34:18.291Z,26.20
2018-07-02T19:36:45.988Z,26.10
2018-07-02T19:39:14.049Z,26.10
2018-07-02T19:41:41.801Z,26.10
2018-07-02T19:44:10.111Z,26.10
2018-07-02T19:46:37.823Z,26.00
2018-07-02T19:49:05.615Z,26.10
2018-07-02T19:51:33.324Z,26.10
2018-07-02T19:54:01.204Z,26.00
2018-07-02T19:56:29.051Z,25.90
2018-07-02T19:58:56.719Z,25.90
2018-07-02T20:01:24.480Z,26.00
2018-07-02T20:03:52.237Z,26.00
2018-07-02T20:06:19.964Z,25.90
2018-07-02T20:08:47.775Z,25.90
2018-07-02T20:11:15.547Z,25.80
2018-07-02T20:13:43.288Z,25.80
2018-07-02T20:16:10.999Z,25.70
2018-07-02T20:18:38.953Z,25.70
2018-07-02T20:21:06.709Z,25.70
2018-07-02T20:23:34.391Z,25.70
2018-07-02T20:26:02.098Z,25.60
2018-07-02T20:28:29.852Z,25.60
2018-07-02T20:30:57.645Z,25.60
2018-07-02T20:33:25.408Z,25.50
2018-07-02T20:35:53.136Z,25.50
2018-07-02T20:38:20.891Z,25.40
2018-07-02T20:40:48.670Z,25.40
2018-07-02T20:43:16.386Z,25.40
2018-07-02T20:45:44.169Z,25.30
2018-07-02T20:48:11.902Z,25.20
2018-07-02T20:50:39.608Z,25.10
2018-07-02T20:53:07.391Z,25.00
2018-07-02T20:55:35.084Z,24.90
2018-07-02T20:58:02.878Z,24.80
2018-07-02T21:00:31.257Z,24.70
2018-07-02T21:03:00.245Z,24.60
2018-07-02T21:05:28.013Z,24.50
2018-07-02T21:07:55.840Z,24.40
2018-07-02T21:10:23.657Z,24.40
2018-07-02T21:12:51.429Z,24.40
2018-07-02T21:15:19.136Z,24.30
2018-07-02T21:17:46.901Z,24.30
2018-07-02T21:20:14.644Z,24.30
2018-07-02T21:22:42.393Z,24.30
2018-07-02T21:25:10.180Z,24.30
2018-07-02T21:27:37.904Z,24.30
2018-07-02T21:30:06.828Z,24.30
2018-07-02T21:32:34.917Z,24.20
2018-07-02T21:35:02.714Z,24.20
2018-07-02T21:37:30.458Z,24.20
2018-07-02T21:39:58.240Z,24.10
2018-07-02T21:42:25.951Z,23.90
2018-07-02T21:44:53.755Z,23.90
2018-07-02T21:47:21.796Z,23.90
2018-07-02T21:49:49.549Z,23.90
2018-07-02T21:52:17.544Z,23.90
2018-07-02T21:54:45.248Z,23.90
2018-07-02T21:57:12.992Z,23.90
2018-07-02T21:59:40.779Z,23.80
2018-07-02T22:02:08.710Z,23.70
2018-07-02T22:04:36.500Z,23.70
2018-07-02T22:07:04.640Z,23.70
2018-07-02T22:09:32.353Z,23.70
2018-07-02T22:12:00.089Z,23.70
2018-07-02T22:14:27.801Z,23.60
2018-07-02T22:16:55.457Z,23.60
2018-07-02T22:19:23.189Z,23.50
2018-07-02T22:21:50.902Z,23.40
2018-07-02T22:24:18.669Z,23.30
2018-07-02T22:26:46.392Z,23.30
2018-07-02T22:29:14.084Z,23.20
2018-07-02T22:31:41.802Z,23.10
2018-07-02T22:34:09.482Z,23.10
2018-07-02T22:36:37.206Z,23.10
2018-07-02T22:39:08.527Z,23.00
2018-07-02T22:41:36.324Z,23.00
2018-07-02T22:44:04.379Z,22.90
2018-07-02T22:46:32.104Z,22.80
2018-07-02T22:48:59.808Z,22.70
2018-07-02T22:51:27.554Z,22.50
2018-07-02T22:53:55.768Z,22.50
2018-07-02T22:56:23.461Z,22.40
2018-07-02T22:58:51.167Z,22.40
2018-07-02T23:01:18.931Z,22.50
2018-07-02T23:03:46.655Z,22.40
2018-07-02T23:06:14.316Z,22.40
2018-07-02T23:08:42.029Z,22.30
2018-07-02T23:11:09.784Z,22.20
2018-07-02T23:13:37.488Z,22.10
2018-07-02T23:16:05.551Z,22.10
2018-07-02T23:18:33.813Z,22.00
2018-07-02T23:21:01.547Z,21.90
2018-07-02T23:23:29.528Z,21.90
2018-07-02T23:25:57.244Z,22.00
2018-07-02T23:28:24.923Z,21.90
2018-07-02T23:30:52.620Z,21.90
2018-07-02T23:33:20.289Z,22.00
2018-07-02T23:35:47.992Z,22.00
2018-07-02T23:38:15.670Z,22.00
2018-07-02T23:40:43.416Z,22.00
2018-07-02T23:43:11.057Z,22.00
2018-07-02T23:45:38.731Z,21.90
2018-07-02T23:48:06.426Z,21.80
2018-07-02T23:50:34.127Z,21.80
2018-07-02T23:53:01.852Z,21.70
2018-07-02T23:55:29.541Z,21.70
2018-07-02T23:57:57.251Z,21.70
